sensor_id;sensor_type;location;lat;lon;timestamp;P1;durP1;ratioP1;P2;durP2;ratioP2
16308;SDS011;8263;48.880;9.276;2022-11-27T01:12:01;131.52;;;122.22;;
16308;SDS011;8263;48.880;9.276;2022-11-27T01:21:01;130.18;;;120.95;;
16308;SDS011;8263;48.880;9.276;2022-11-27T02:07:15;131.65;;;122.43;;
16308;SDS011;8263;48.880;9.276;2022-11-27T02:12:59;132.25;;;122.90;;
16308;SDS011;8263;48.880;9.276;2022-11-27T02:16:26;133.68;;;124.22;;
16308;SDS011;8263;48.880;9.276;2022-11-27T02:18:53;132.95;;;123.45;;
16308;SDS011;8263;48.880;9.276;2022-11-27T02:21:34;132.60;;;123.22;;
16308;SDS011;8263;48.880;9.276;2022-11-27T02:24:47;134.23;;;124.63;;
16308;SDS011;8263;48.880;9.276;2022-11-27T02:27:55;131.40;;;122.20;;
16308;SDS011;8263;48.880;9.276;2022-11-27T02:52:13;131.80;;;122.55;;
16308;SDS011;8263;48.880;9.276;2022-11-27T02:54:51;133.57;;;124.07;;
16308;SDS011;8263;48.880;9.276;2022-11-27T02:57:22;135.00;;;125.18;;
16308;SDS011;8263;48.880;9.276;2022-11-27T02:59:52;131.60;;;122.28;;
16308;SDS011;8263;48.880;9.276;2022-11-27T03:02:29;129.50;;;120.45;;
16308;SDS011;8263;48.880;9.276;2022-11-27T03:10:48;130.77;;;121.63;;
16308;SDS011;8263;48.880;9.276;2022-11-27T03:13:19;132.10;;;122.80;;
16308;SDS011;8263;48.880;9.276;2022-11-27T03:15:59;133.10;;;123.53;;
16308;SDS011;8263;48.880;9.276;2022-11-27T03:22:00;133.07;;;123.68;;
16308;SDS011;8263;48.880;9.276;2022-11-27T03:24:53;132.70;;;123.35;;
16308;SDS011;8263;48.880;9.276;2022-11-27T03:30:54;131.82;;;122.55;;
16308;SDS011;8263;48.880;9.276;2022-11-27T03:34:08;131.50;;;122.18;;
16308;SDS011;8263;48.880;9.276;2022-11-27T03:40:17;133.45;;;123.80;;
16308;SDS011;8263;48.880;9.276;2022-11-27T03:43:07;134.18;;;124.65;;
16308;SDS011;8263;48.880;9.276;2022-11-27T03:52:13;131.52;;;122.30;;
16308;SDS011;8263;48.880;9.276;2022-11-27T03:54:47;132.27;;;122.88;;
16308;SDS011;8263;48.880;9.276;2022-11-27T03:57:32;131.57;;;122.32;;
16308;SDS011;8263;48.880;9.276;2022-11-27T04:00:19;132.82;;;123.43;;
16308;SDS011;8263;48.880;9.276;2022-11-27T04:03:03;131.00;;;121.80;;
16308;SDS011;8263;48.880;9.276;2022-11-27T04:05:41;133.60;;;124.13;;
16308;SDS011;8263;48.880;9.276;2022-11-27T04:08:23;130.85;;;121.70;;
16308;SDS011;8263;48.880;9.276;2022-11-27T04:10:50;133.18;;;123.78;;
16308;SDS011;8263;48.880;9.276;2022-11-27T04:13:20;131.38;;;122.10;;
16308;SDS011;8263;48.880;9.276;2022-11-27T04:15:47;130.00;;;120.88;;
16308;SDS011;8263;48.880;9.276;2022-11-27T04:18:33;133.52;;;123.97;;
16308;SDS011;8263;48.880;9.276;2022-11-27T04:21:19;130.02;;;120.93;;
16308;SDS011;8263;48.880;9.276;2022-11-27T04:45:18;134.20;;;124.63;;
16308;SDS011;8263;48.880;9.276;2022-11-27T04:59:39;132.30;;;122.97;;
16308;SDS011;8263;48.880;9.276;2022-11-27T05:16:19;132.18;;;122.80;;
16308;SDS011;8263;48.880;9.276;2022-11-27T05:34:33;133.25;;;123.85;;
16308;SDS011;8263;48.880;9.276;2022-11-27T05:37:07;134.40;;;124.90;;
16308;SDS011;8263;48.880;9.276;2022-11-27T05:40:07;134.55;;;125.03;;
16308;SDS011;8263;48.880;9.276;2022-11-27T05:42:58;132.65;;;123.25;;
16308;SDS011;8263;48.880;9.276;2022-11-27T05:45:24;133.07;;;123.68;;
16308;SDS011;8263;48.880;9.276;2022-11-27T05:48:26;134.05;;;124.55;;
16308;SDS011;8263;48.880;9.276;2022-11-27T05:57:17;132.95;;;123.57;;
16308;SDS011;8263;48.880;9.276;2022-11-27T05:59:58;134.20;;;124.65;;
16308;SDS011;8263;48.880;9.276;2022-11-27T06:02:28;133.50;;;124.00;;
16308;SDS011;8263;48.880;9.276;2022-11-27T06:04:55;134.20;;;124.60;;
16308;SDS011;8263;48.880;9.276;2022-11-27T06:07:22;133.57;;;124.07;;
16308;SDS011;8263;48.880;9.276;2022-11-27T06:09:48;132.85;;;123.45;;
16308;SDS011;8263;48.880;9.276;2022-11-27T06:12:26;134.27;;;124.78;;
16308;SDS011;8263;48.880;9.276;2022-11-27T06:15:06;135.50;;;125.85;;
16308;SDS011;8263;48.880;9.276;2022-11-27T06:17:36;132.68;;;123.28;;
16308;SDS011;8263;48.880;9.276;2022-11-27T06:20:44;134.13;;;124.60;;
16308;SDS011;8263;48.880;9.276;2022-11-27T06:23:14;135.20;;;125.55;;
16308;SDS011;8263;48.880;9.276;2022-11-27T06:41:46;134.27;;;124.75;;
16308;SDS011;8263;48.880;9.276;2022-11-27T06:44:26;133.52;;;124.00;;
16308;SDS011;8263;48.880;9.276;2022-11-27T06:46:59;134.15;;;124.55;;
16308;SDS011;8263;48.880;9.276;2022-11-27T07:14:13;134.75;;;125.15;;
16308;SDS011;8263;48.880;9.276;2022-11-27T07:17:24;133.70;;;124.20;;
16308;SDS011;8263;48.880;9.276;2022-11-27T07:19:44;134.68;;;124.78;;
16308;SDS011;8263;48.880;9.276;2022-11-27T07:22:25;135.23;;;125.53;;
16308;SDS011;8263;48.880;9.276;2022-11-27T07:25:58;133.85;;;124.35;;
16308;SDS011;8263;48.880;9.276;2022-11-27T07:27:59;133.50;;;124.00;;
16308;SDS011;8263;48.880;9.276;2022-11-27T07:30:41;134.20;;;124.50;;
16308;SDS011;8263;48.880;9.276;2022-11-27T07:33:08;134.32;;;124.72;;
16308;SDS011;8263;48.880;9.276;2022-11-27T07:35:41;133.98;;;124.47;;
16308;SDS011;8263;48.880;9.276;2022-11-27T07:38:12;133.38;;;123.88;;
16308;SDS011;8263;48.880;9.276;2022-11-27T07:40:48;132.40;;;123.00;;
16308;SDS011;8263;48.880;9.276;2022-11-27T07:43:27;134.02;;;124.53;;
16308;SDS011;8263;48.880;9.276;2022-11-27T07:45:55;133.43;;;123.90;;
16308;SDS011;8263;48.880;9.276;2022-11-27T07:48:30;130.75;;;121.50;;
16308;SDS011;8263;48.880;9.276;2022-11-27T07:53:42;136.15;;;126.35;;
16308;SDS011;8263;48.880;9.276;2022-11-27T08:08:37;134.90;;;125.30;;
16308;SDS011;8263;48.880;9.276;2022-11-27T08:26:32;135.85;;;125.90;;
16308;SDS011;8263;48.880;9.276;2022-11-27T08:35:11;134.18;;;124.50;;
16308;SDS011;8263;48.880;9.276;2022-11-27T08:44:13;136.25;;;126.45;;
16308;SDS011;8263;48.880;9.276;2022-11-27T08:49:42;135.35;;;125.65;;
16308;SDS011;8263;48.880;9.276;2022-11-27T08:52:25;134.57;;;124.82;;
16308;SDS011;8263;48.880;9.276;2022-11-27T08:55:18;133.35;;;123.85;;
16308;SDS011;8263;48.880;9.276;2022-11-27T08:58:07;135.05;;;125.45;;
16308;SDS011;8263;48.880;9.276;2022-11-27T09:04:04;135.18;;;125.53;;
16308;SDS011;8263;48.880;9.276;2022-11-27T09:07:02;133.82;;;124.32;;
16308;SDS011;8263;48.880;9.276;2022-11-27T09:09:49;133.85;;;124.32;;
16308;SDS011;8263;48.880;9.276;2022-11-27T09:12:24;135.57;;;125.88;;
16308;SDS011;8263;48.880;9.276;2022-11-27T09:24:01;134.80;;;125.18;;
16308;SDS011;8263;48.880;9.276;2022-11-27T09:26:48;135.38;;;125.68;;
16308;SDS011;8263;48.880;9.276;2022-11-27T09:29:44;135.05;;;125.43;;
16308;SDS011;8263;48.880;9.276;2022-11-27T09:32:37;134.88;;;125.20;;
16308;SDS011;8263;48.880;9.276;2022-11-27T09:35:16;134.38;;;124.75;;
16308;SDS011;8263;48.880;9.276;2022-11-27T09:38:37;131.93;;;122.63;;
16308;SDS011;8263;48.880;9.276;2022-11-27T09:44:26;134.45;;;124.90;;
16308;SDS011;8263;48.880;9.276;2022-11-27T09:53:15;133.70;;;124.20;;
16308;SDS011;8263;48.880;9.276;2022-11-27T09:55:48;132.25;;;122.85;;
16308;SDS011;8263;48.880;9.276;2022-11-27T09:58:20;132.50;;;123.00;;
16308;SDS011;8263;48.880;9.276;2022-11-27T10:00:52;132.32;;;122.47;;
16308;SDS011;8263;48.880;9.276;2022-11-27T10:03:21;133.45;;;123.85;;
16308;SDS011;8263;48.880;9.276;2022-11-27T10:06:05;132.82;;;123.20;;
16308;SDS011;8263;48.880;9.276;2022-11-27T10:08:40;133.50;;;124.03;;
16308;SDS011;8263;48.880;9.276;2022-11-27T10:11:23;132.40;;;123.10;;
16308;SDS011;8263;48.880;9.276;2022-11-27T10:14:01;132.07;;;122.78;;
16308;SDS011;8263;48.880;9.276;2022-11-27T10:16:32;132.70;;;123.28;;
16308;SDS011;8263;48.880;9.276;2022-11-27T10:19:04;132.68;;;123.20;;
16308;SDS011;8263;48.880;9.276;2022-11-27T10:21:37;132.60;;;123.22;;
16308;SDS011;8263;48.880;9.276;2022-11-27T10:27:21;129.77;;;120.53;;
16308;SDS011;8263;48.880;9.276;2022-11-27T10:30:10;130.13;;;120.95;;
16308;SDS011;8263;48.880;9.276;2022-11-27T10:33:06;129.85;;;120.75;;
16308;SDS011;8263;48.880;9.276;2022-11-27T11:05:58;129.15;;;119.93;;
16308;SDS011;8263;48.880;9.276;2022-11-27T11:08:28;127.78;;;118.88;;
16308;SDS011;8263;48.880;9.276;2022-11-27T11:10:57;127.68;;;118.75;;
16308;SDS011;8263;48.880;9.276;2022-11-27T11:19:20;128.38;;;119.47;;
16308;SDS011;8263;48.880;9.276;2022-11-27T11:22:20;128.23;;;119.25;;
16308;SDS011;8263;48.880;9.276;2022-11-27T11:24:50;125.88;;;117.07;;
16308;SDS011;8263;48.880;9.276;2022-11-27T11:27:18;127.65;;;118.75;;
16308;SDS011;8263;48.880;9.276;2022-11-27T11:29:46;127.18;;;118.28;;
16308;SDS011;8263;48.880;9.276;2022-11-27T11:32:20;126.60;;;117.80;;
16308;SDS011;8263;48.880;9.276;2022-11-27T11:34:48;127.78;;;118.63;;
16308;SDS011;8263;48.880;9.276;2022-11-27T11:37:26;125.35;;;116.65;;
16308;SDS011;8263;48.880;9.276;2022-11-27T11:39:55;125.30;;;116.55;;
16308;SDS011;8263;48.880;9.276;2022-11-27T11:42:32;124.82;;;116.13;;
16308;SDS011;8263;48.880;9.276;2022-11-27T11:45:53;126.18;;;117.38;;
16308;SDS011;8263;48.880;9.276;2022-11-27T11:48:21;124.47;;;115.82;;
16308;SDS011;8263;48.880;9.276;2022-11-27T11:50:52;122.45;;;114.05;;
16308;SDS011;8263;48.880;9.276;2022-11-27T11:53:22;124.88;;;116.20;;
16308;SDS011;8263;48.880;9.276;2022-11-27T11:55:53;123.55;;;115.10;;
16308;SDS011;8263;48.880;9.276;2022-11-27T12:01:21;122.35;;;113.93;;
16308;SDS011;8263;48.880;9.276;2022-11-27T12:04:09;122.90;;;114.53;;
16308;SDS011;8263;48.880;9.276;2022-11-27T12:06:51;123.53;;;114.65;;
16308;SDS011;8263;48.880;9.276;2022-11-27T12:09:26;122.88;;;114.43;;
16308;SDS011;8263;48.880;9.276;2022-11-27T12:12:10;122.13;;;113.82;;
16308;SDS011;8263;48.880;9.276;2022-11-27T12:14:42;121.57;;;113.35;;
16308;SDS011;8263;48.880;9.276;2022-11-27T12:17:13;122.82;;;114.30;;
16308;SDS011;8263;48.880;9.276;2022-11-27T12:19:54;123.00;;;114.60;;
16308;SDS011;8263;48.880;9.276;2022-11-27T12:23:47;119.53;;;111.43;;
16308;SDS011;8263;48.880;9.276;2022-11-27T12:25:29;121.45;;;113.15;;
16308;SDS011;8263;48.880;9.276;2022-11-27T12:28:07;121.80;;;113.35;;
16308;SDS011;8263;48.880;9.276;2022-11-27T12:33:46;121.22;;;112.82;;
16308;SDS011;8263;48.880;9.276;2022-11-27T12:36:19;121.00;;;112.78;;
16308;SDS011;8263;48.880;9.276;2022-11-27T12:41:50;118.35;;;110.40;;
16308;SDS011;8263;48.880;9.276;2022-11-27T12:44:22;119.13;;;110.95;;
16308;SDS011;8263;48.880;9.276;2022-11-27T12:46:51;118.40;;;110.30;;
16308;SDS011;8263;48.880;9.276;2022-11-27T12:49:20;118.93;;;110.78;;
16308;SDS011;8263;48.880;9.276;2022-11-27T12:51:50;117.85;;;109.85;;
16308;SDS011;8263;48.880;9.276;2022-11-27T12:54:19;117.32;;;109.43;;
16308;SDS011;8263;48.880;9.276;2022-11-27T12:56:49;117.50;;;109.60;;
16308;SDS011;8263;48.880;9.276;2022-11-27T12:59:20;118.53;;;110.28;;
16308;SDS011;8263;48.880;9.276;2022-11-27T13:01:51;116.40;;;108.40;;
16308;SDS011;8263;48.880;9.276;2022-11-27T13:04:21;111.20;;;103.63;;
16308;SDS011;8263;48.880;9.276;2022-11-27T13:06:51;115.97;;;108.18;;
16308;SDS011;8263;48.880;9.276;2022-11-27T13:09:24;115.45;;;107.57;;
16308;SDS011;8263;48.880;9.276;2022-11-27T13:11:51;116.72;;;108.88;;
16308;SDS011;8263;48.880;9.276;2022-11-27T13:14:21;116.00;;;108.18;;
16308;SDS011;8263;48.880;9.276;2022-11-27T13:16:49;117.75;;;109.53;;
16308;SDS011;8263;48.880;9.276;2022-11-27T13:19:20;115.53;;;107.75;;
16308;SDS011;8263;48.880;9.276;2022-11-27T13:21:48;116.60;;;108.70;;
16308;SDS011;8263;48.880;9.276;2022-11-27T13:24:15;116.10;;;108.13;;
16308;SDS011;8263;48.880;9.276;2022-11-27T13:26:45;117.03;;;109.13;;
16308;SDS011;8263;48.880;9.276;2022-11-27T13:29:14;115.57;;;107.78;;
16308;SDS011;8263;48.880;9.276;2022-11-27T13:31:44;117.85;;;109.82;;
16308;SDS011;8263;48.880;9.276;2022-11-27T13:34:15;115.72;;;107.93;;
16308;SDS011;8263;48.880;9.276;2022-11-27T13:36:43;116.90;;;108.97;;
16308;SDS011;8263;48.880;9.276;2022-11-27T13:39:20;115.80;;;107.93;;
16308;SDS011;8263;48.880;9.276;2022-11-27T13:41:48;118.15;;;110.07;;
16308;SDS011;8263;48.880;9.276;2022-11-27T13:44:25;118.35;;;110.10;;
16308;SDS011;8263;48.880;9.276;2022-11-27T13:46:54;115.22;;;107.53;;
16308;SDS011;8263;48.880;9.276;2022-11-27T13:49:24;115.38;;;107.57;;
16308;SDS011;8263;48.880;9.276;2022-11-27T13:51:51;118.30;;;110.15;;
16308;SDS011;8263;48.880;9.276;2022-11-27T13:54:30;117.43;;;109.32;;
16308;SDS011;8263;48.880;9.276;2022-11-27T13:57:07;115.38;;;107.60;;
16308;SDS011;8263;48.880;9.276;2022-11-27T13:59:34;116.32;;;108.30;;
16308;SDS011;8263;48.880;9.276;2022-11-27T14:02:03;113.60;;;106.00;;
16308;SDS011;8263;48.880;9.276;2022-11-27T14:04:30;117.75;;;109.47;;
16308;SDS011;8263;48.880;9.276;2022-11-27T14:06:58;114.90;;;106.95;;
16308;SDS011;8263;48.880;9.276;2022-11-27T14:09:31;116.38;;;108.55;;
16308;SDS011;8263;48.880;9.276;2022-11-27T14:11:58;112.47;;;104.68;;
16308;SDS011;8263;48.880;9.276;2022-11-27T14:14:25;116.38;;;108.53;;
16308;SDS011;8263;48.880;9.276;2022-11-27T14:16:54;113.70;;;106.00;;
16308;SDS011;8263;48.880;9.276;2022-11-27T14:19:26;116.85;;;108.75;;
16308;SDS011;8263;48.880;9.276;2022-11-27T14:21:54;117.30;;;109.25;;
16308;SDS011;8263;48.880;9.276;2022-11-27T14:24:24;117.47;;;109.45;;
16308;SDS011;8263;48.880;9.276;2022-11-27T14:26:51;116.65;;;108.82;;
16308;SDS011;8263;48.880;9.276;2022-11-27T14:29:18;117.45;;;109.38;;
16308;SDS011;8263;48.880;9.276;2022-11-27T14:31:46;113.97;;;106.20;;
16308;SDS011;8263;48.880;9.276;2022-11-27T14:34:25;114.97;;;107.15;;
16308;SDS011;8263;48.880;9.276;2022-11-27T14:36:54;115.20;;;107.40;;
16308;SDS011;8263;48.880;9.276;2022-11-27T14:39:21;115.60;;;107.70;;
16308;SDS011;8263;48.880;9.276;2022-11-27T14:41:54;116.10;;;108.25;;
16308;SDS011;8263;48.880;9.276;2022-11-27T14:44:21;117.10;;;109.20;;
16308;SDS011;8263;48.880;9.276;2022-11-27T14:46:48;117.30;;;108.90;;
16308;SDS011;8263;48.880;9.276;2022-11-27T14:49:18;113.57;;;105.97;;
16308;SDS011;8263;48.880;9.276;2022-11-27T14:51:46;115.55;;;107.72;;
16308;SDS011;8263;48.880;9.276;2022-11-27T14:54:15;117.25;;;109.30;;
16308;SDS011;8263;48.880;9.276;2022-11-27T14:56:42;112.80;;;105.20;;
16308;SDS011;8263;48.880;9.276;2022-11-27T14:59:09;116.38;;;108.45;;
16308;SDS011;8263;48.880;9.276;2022-11-27T15:01:38;115.72;;;107.80;;
16308;SDS011;8263;48.880;9.276;2022-11-27T15:04:05;117.00;;;109.13;;
16308;SDS011;8263;48.880;9.276;2022-11-27T15:06:34;117.63;;;109.60;;
16308;SDS011;8263;48.880;9.276;2022-11-27T15:09:04;118.07;;;110.07;;
16308;SDS011;8263;48.880;9.276;2022-11-27T15:11:31;114.35;;;106.65;;
16308;SDS011;8263;48.880;9.276;2022-11-27T15:13:58;116.15;;;108.28;;
16308;SDS011;8263;48.880;9.276;2022-11-27T15:16:26;116.13;;;108.32;;
16308;SDS011;8263;48.880;9.276;2022-11-27T15:18:54;116.55;;;108.75;;
16308;SDS011;8263;48.880;9.276;2022-11-27T15:21:23;115.28;;;107.30;;
16308;SDS011;8263;48.880;9.276;2022-11-27T15:23:55;117.53;;;109.53;;
16308;SDS011;8263;48.880;9.276;2022-11-27T15:40:34;114.95;;;107.32;;
16308;SDS011;8263;48.880;9.276;2022-11-27T15:55:26;116.03;;;108.25;;
16308;SDS011;8263;48.880;9.276;2022-11-27T16:01:38;117.03;;;109.22;;
16308;SDS011;8263;48.880;9.276;2022-11-27T16:04:05;116.55;;;108.75;;
16308;SDS011;8263;48.880;9.276;2022-11-27T16:06:34;118.68;;;110.68;;
16308;SDS011;8263;48.880;9.276;2022-11-27T16:09:02;115.78;;;107.97;;
16308;SDS011;8263;48.880;9.276;2022-11-27T16:11:34;112.68;;;105.13;;
16308;SDS011;8263;48.880;9.276;2022-11-27T16:14:20;113.80;;;106.25;;
16308;SDS011;8263;48.880;9.276;2022-11-27T16:16:48;111.20;;;103.80;;
16308;SDS011;8263;48.880;9.276;2022-11-27T16:19:15;110.28;;;103.00;;
16308;SDS011;8263;48.880;9.276;2022-11-27T16:21:42;117.53;;;109.63;;
16308;SDS011;8263;48.880;9.276;2022-11-27T16:24:10;112.05;;;104.57;;
16308;SDS011;8263;48.880;9.276;2022-11-27T16:26:38;113.05;;;105.55;;
16308;SDS011;8263;48.880;9.276;2022-11-27T16:29:25;113.95;;;106.28;;
16308;SDS011;8263;48.880;9.276;2022-11-27T16:31:52;116.25;;;108.43;;
16308;SDS011;8263;48.880;9.276;2022-11-27T16:34:21;112.78;;;105.28;;
16308;SDS011;8263;48.880;9.276;2022-11-27T16:36:48;111.65;;;104.25;;
16308;SDS011;8263;48.880;9.276;2022-11-27T16:39:16;115.28;;;107.57;;
16308;SDS011;8263;48.880;9.276;2022-11-27T16:41:43;118.03;;;110.13;;
16308;SDS011;8263;48.880;9.276;2022-11-27T16:44:12;115.93;;;108.18;;
16308;SDS011;8263;48.880;9.276;2022-11-27T16:46:40;116.53;;;108.72;;
16308;SDS011;8263;48.880;9.276;2022-11-27T16:49:08;116.57;;;108.75;;
16308;SDS011;8263;48.880;9.276;2022-11-27T16:51:36;117.28;;;109.32;;
16308;SDS011;8263;48.880;9.276;2022-11-27T16:54:04;117.78;;;109.82;;
16308;SDS011;8263;48.880;9.276;2022-11-27T16:56:31;116.18;;;108.28;;
16308;SDS011;8263;48.880;9.276;2022-11-27T16:58:59;116.13;;;108.38;;
16308;SDS011;8263;48.880;9.276;2022-11-27T17:01:27;117.82;;;109.88;;
16308;SDS011;8263;48.880;9.276;2022-11-27T17:04:07;118.25;;;110.32;;
16308;SDS011;8263;48.880;9.276;2022-11-27T17:06:35;120.03;;;111.90;;
16308;SDS011;8263;48.880;9.276;2022-11-27T17:09:12;118.78;;;110.78;;
16308;SDS011;8263;48.880;9.276;2022-11-27T17:11:41;117.50;;;109.63;;
16308;SDS011;8263;48.880;9.276;2022-11-27T17:14:22;116.72;;;108.82;;
16308;SDS011;8263;48.880;9.276;2022-11-27T17:16:50;119.00;;;111.00;;
16308;SDS011;8263;48.880;9.276;2022-11-27T17:19:23;120.07;;;111.72;;
16308;SDS011;8263;48.880;9.276;2022-11-27T17:22:06;118.43;;;110.47;;
16308;SDS011;8263;48.880;9.276;2022-11-27T17:24:32;118.18;;;110.13;;
16308;SDS011;8263;48.880;9.276;2022-11-27T17:27:00;116.45;;;108.57;;
16308;SDS011;8263;48.880;9.276;2022-11-27T17:29:26;119.43;;;111.28;;
16308;SDS011;8263;48.880;9.276;2022-11-27T17:32:01;118.68;;;110.57;;
16308;SDS011;8263;48.880;9.276;2022-11-27T17:34:34;120.50;;;112.35;;
16308;SDS011;8263;48.880;9.276;2022-11-27T17:37:00;120.30;;;111.97;;
16308;SDS011;8263;48.880;9.276;2022-11-27T17:39:27;122.82;;;114.22;;
16308;SDS011;8263;48.880;9.276;2022-11-27T17:42:29;117.22;;;109.32;;
16308;SDS011;8263;48.880;9.276;2022-11-27T17:44:51;117.97;;;110.05;;
16308;SDS011;8263;48.880;9.276;2022-11-27T17:47:18;120.80;;;112.53;;
16308;SDS011;8263;48.880;9.276;2022-11-27T17:49:48;118.40;;;110.28;;
16308;SDS011;8263;48.880;9.276;2022-11-27T17:52:17;118.60;;;110.60;;
16308;SDS011;8263;48.880;9.276;2022-11-27T17:54:46;120.38;;;112.25;;
16308;SDS011;8263;48.880;9.276;2022-11-27T17:57:13;120.00;;;111.82;;
16308;SDS011;8263;48.880;9.276;2022-11-27T17:59:44;121.00;;;112.80;;
16308;SDS011;8263;48.880;9.276;2022-11-27T18:02:12;119.13;;;110.88;;
16308;SDS011;8263;48.880;9.276;2022-11-27T18:04:39;118.25;;;110.25;;
16308;SDS011;8263;48.880;9.276;2022-11-27T18:07:10;119.32;;;111.32;;
16308;SDS011;8263;48.880;9.276;2022-11-27T18:09:37;116.97;;;109.03;;
16308;SDS011;8263;48.880;9.276;2022-11-27T18:12:03;121.03;;;112.68;;
16308;SDS011;8263;48.880;9.276;2022-11-27T18:14:41;121.00;;;112.82;;
16308;SDS011;8263;48.880;9.276;2022-11-27T18:17:13;122.65;;;114.25;;
16308;SDS011;8263;48.880;9.276;2022-11-27T18:20:10;118.68;;;110.57;;
16308;SDS011;8263;48.880;9.276;2022-11-27T18:23:00;120.25;;;112.13;;
16308;SDS011;8263;48.880;9.276;2022-11-27T18:25:46;118.28;;;110.32;;
16308;SDS011;8263;48.880;9.276;2022-11-27T18:31:17;118.93;;;110.93;;
16308;SDS011;8263;48.880;9.276;2022-11-27T18:34:04;122.00;;;113.57;;
16308;SDS011;8263;48.880;9.276;2022-11-27T18:36:39;122.38;;;113.20;;
16308;SDS011;8263;48.880;9.276;2022-11-27T18:39:37;124.03;;;115.15;;
16308;SDS011;8263;48.880;9.276;2022-11-27T18:42:08;121.57;;;113.18;;
16308;SDS011;8263;48.880;9.276;2022-11-27T18:44:42;122.45;;;113.63;;
16308;SDS011;8263;48.880;9.276;2022-11-27T18:47:08;122.88;;;114.35;;
16308;SDS011;8263;48.880;9.276;2022-11-27T18:49:45;121.30;;;113.00;;
16308;SDS011;8263;48.880;9.276;2022-11-27T18:52:26;119.40;;;111.28;;
16308;SDS011;8263;48.880;9.276;2022-11-27T18:54:58;120.78;;;112.47;;
16308;SDS011;8263;48.880;9.276;2022-11-27T19:00:30;120.65;;;112.45;;
16308;SDS011;8263;48.880;9.276;2022-11-27T19:03:09;123.47;;;115.00;;
16308;SDS011;8263;48.880;9.276;2022-11-27T19:05:37;122.05;;;113.40;;
16308;SDS011;8263;48.880;9.276;2022-11-27T19:08:03;119.55;;;111.35;;
16308;SDS011;8263;48.880;9.276;2022-11-27T19:10:40;120.80;;;112.53;;
16308;SDS011;8263;48.880;9.276;2022-11-27T19:13:20;121.80;;;113.25;;
16308;SDS011;8263;48.880;9.276;2022-11-27T19:15:57;120.65;;;112.47;;
16308;SDS011;8263;48.880;9.276;2022-11-27T19:18:24;120.97;;;112.78;;
16308;SDS011;8263;48.880;9.276;2022-11-27T19:20:50;120.70;;;112.50;;
16308;SDS011;8263;48.880;9.276;2022-11-27T19:23:19;121.80;;;113.40;;
16308;SDS011;8263;48.880;9.276;2022-11-27T19:25:49;120.82;;;112.47;;
16308;SDS011;8263;48.880;9.276;2022-11-27T19:28:15;122.15;;;113.78;;
16308;SDS011;8263;48.880;9.276;2022-11-27T19:30:42;118.40;;;110.38;;
16308;SDS011;8263;48.880;9.276;2022-11-27T19:33:09;121.55;;;113.22;;
16308;SDS011;8263;48.880;9.276;2022-11-27T19:35:36;121.57;;;113.20;;
16308;SDS011;8263;48.880;9.276;2022-11-27T19:38:05;121.53;;;113.28;;
16308;SDS011;8263;48.880;9.276;2022-11-27T19:40:35;119.82;;;111.72;;
16308;SDS011;8263;48.880;9.276;2022-11-27T19:45:41;121.22;;;112.95;;
16308;SDS011;8263;48.880;9.276;2022-11-27T19:48:07;121.18;;;112.78;;
16308;SDS011;8263;48.880;9.276;2022-11-27T19:50:35;120.63;;;112.43;;
16308;SDS011;8263;48.880;9.276;2022-11-27T19:53:02;120.93;;;112.72;;
16308;SDS011;8263;48.880;9.276;2022-11-27T19:55:30;121.93;;;113.63;;
16308;SDS011;8263;48.880;9.276;2022-11-27T19:57:58;118.93;;;110.72;;
16308;SDS011;8263;48.880;9.276;2022-11-27T20:00:25;122.07;;;113.78;;
16308;SDS011;8263;48.880;9.276;2022-11-27T20:02:54;122.05;;;113.68;;
16308;SDS011;8263;48.880;9.276;2022-11-27T20:05:21;120.10;;;111.60;;
16308;SDS011;8263;48.880;9.276;2022-11-27T20:07:47;120.85;;;112.65;;
16308;SDS011;8263;48.880;9.276;2022-11-27T20:10:14;120.72;;;112.43;;
16308;SDS011;8263;48.880;9.276;2022-11-27T20:12:41;123.05;;;114.50;;
16308;SDS011;8263;48.880;9.276;2022-11-27T20:15:09;124.75;;;115.95;;
16308;SDS011;8263;48.880;9.276;2022-11-27T20:17:38;121.07;;;112.88;;
16308;SDS011;8263;48.880;9.276;2022-11-27T20:20:11;121.20;;;112.90;;
16308;SDS011;8263;48.880;9.276;2022-11-27T20:22:37;122.30;;;113.90;;
16308;SDS011;8263;48.880;9.276;2022-11-27T20:25:05;122.40;;;114.07;;
16308;SDS011;8263;48.880;9.276;2022-11-27T20:27:33;122.43;;;114.13;;
16308;SDS011;8263;48.880;9.276;2022-11-27T20:30:01;121.75;;;113.25;;
16308;SDS011;8263;48.880;9.276;2022-11-27T20:32:28;120.82;;;112.63;;
16308;SDS011;8263;48.880;9.276;2022-11-27T20:34:54;122.05;;;113.68;;
16308;SDS011;8263;48.880;9.276;2022-11-27T20:37:23;121.47;;;113.10;;
16308;SDS011;8263;48.880;9.276;2022-11-27T20:39:50;120.45;;;112.07;;
16308;SDS011;8263;48.880;9.276;2022-11-27T20:42:17;122.00;;;113.70;;
16308;SDS011;8263;48.880;9.276;2022-11-27T20:44:46;122.72;;;114.28;;
16308;SDS011;8263;48.880;9.276;2022-11-27T20:47:12;121.32;;;113.05;;
16308;SDS011;8263;48.880;9.276;2022-11-27T20:49:39;122.80;;;114.43;;
16308;SDS011;8263;48.880;9.276;2022-11-27T20:52:06;123.38;;;114.78;;
16308;SDS011;8263;48.880;9.276;2022-11-27T20:54:36;123.05;;;114.05;;
16308;SDS011;8263;48.880;9.276;2022-11-27T20:57:02;123.00;;;114.50;;
16308;SDS011;8263;48.880;9.276;2022-11-27T20:59:30;122.25;;;113.78;;
16308;SDS011;8263;48.880;9.276;2022-11-27T21:01:57;122.00;;;113.53;;
16308;SDS011;8263;48.880;9.276;2022-11-27T21:04:25;120.65;;;112.43;;
16308;SDS011;8263;48.880;9.276;2022-11-27T21:06:53;123.13;;;114.57;;
16308;SDS011;8263;48.880;9.276;2022-11-27T21:09:21;122.22;;;113.93;;
16308;SDS011;8263;48.880;9.276;2022-11-27T21:11:50;120.80;;;112.60;;
16308;SDS011;8263;48.880;9.276;2022-11-27T21:14:17;121.53;;;113.25;;
16308;SDS011;8263;48.880;9.276;2022-11-27T21:16:43;121.18;;;112.97;;
16308;SDS011;8263;48.880;9.276;2022-11-27T21:19:14;123.00;;;114.47;;
16308;SDS011;8263;48.880;9.276;2022-11-27T21:21:42;121.65;;;113.35;;
16308;SDS011;8263;48.880;9.276;2022-11-27T21:24:08;122.88;;;114.47;;
16308;SDS011;8263;48.880;9.276;2022-11-27T21:26:35;121.97;;;113.65;;
16308;SDS011;8263;48.880;9.276;2022-11-27T21:29:03;125.28;;;116.57;;
16308;SDS011;8263;48.880;9.276;2022-11-27T21:31:30;122.10;;;113.78;;
16308;SDS011;8263;48.880;9.276;2022-11-27T21:33:59;121.85;;;113.60;;
16308;SDS011;8263;48.880;9.276;2022-11-27T21:36:27;122.55;;;113.93;;
16308;SDS011;8263;48.880;9.276;2022-11-27T21:38:55;121.53;;;113.25;;
16308;SDS011;8263;48.880;9.276;2022-11-27T21:41:21;121.75;;;113.18;;
16308;SDS011;8263;48.880;9.276;2022-11-27T21:43:51;120.95;;;112.60;;
16308;SDS011;8263;48.880;9.276;2022-11-27T21:46:21;122.28;;;113.80;;
16308;SDS011;8263;48.880;9.276;2022-11-27T21:48:48;121.55;;;113.25;;
16308;SDS011;8263;48.880;9.276;2022-11-27T21:51:16;122.15;;;113.68;;
16308;SDS011;8263;48.880;9.276;2022-11-27T21:53:46;122.25;;;113.68;;
16308;SDS011;8263;48.880;9.276;2022-11-27T21:56:14;122.65;;;114.15;;
16308;SDS011;8263;48.880;9.276;2022-11-27T21:58:41;126.15;;;117.05;;